In Rescue
 
Open Full Screen Window  High Contrast Mode
Wind Gusting 00 knots
03
August 19, 2022 6:16 AM CDT
Present Weather: Light Rain
Weather Information
Wind Direction
  170 °
Wind Speed
  03 kt (3 mph)
Wind Gust
  00 kt (0 mph)
Altimeter
29.75 in
Visibility
7 SM
Temperature
16° C
61° F
Dewpoint
16° C
61° F
Humidity
100%
1hr Rain Fall
00.02 in.
24hr Rain Fall
00.58 in.
Sky Condition
Overcast @ 9,000 ft
Scattered @ 4,600 ft
Scattered @ 2,200 ft
VFR

METAR K14Y 191116Z AUTO 17003KT 7SM -RA SCT022 SCT046 OVC090 16/16 A2975 RMK AO2 P0002

FAA Disclaimer: The data displayed is for advisory purposes only and is not to be used for flight planning or operations.